sensor_id;sensor_type;location;lat;lon;timestamp;pressure;altitude;pressure_sealevel;temperature;humidity
16544;BME280;8384;47.996;7.786;2024-03-23T00:54:09;98119.66;;;14.19;57.75
16544;BME280;8384;47.996;7.786;2024-03-23T00:56:34;98060.03;;;13.87;57.67
16544;BME280;8384;47.996;7.786;2024-03-23T00:59:00;98088.13;;;13.98;57.63
16544;BME280;8384;47.996;7.786;2024-03-23T01:01:28;98020.69;;;13.72;57.69
16544;BME280;8384;47.996;7.786;2024-03-23T01:03:53;98048.97;;;13.73;58.15
16544;BME280;8384;47.996;7.786;2024-03-23T01:06:21;98083.25;;;13.94;58.18
16544;BME280;8384;47.996;7.786;2024-03-23T01:08:47;98107.19;;;14.08;58.20
16544;BME280;8384;47.996;7.786;2024-03-23T01:11:12;98142.72;;;14.37;57.88
16544;BME280;8384;47.996;7.786;2024-03-23T01:13:40;98118.22;;;14.22;58.36
16544;BME280;8384;47.996;7.786;2024-03-23T01:16:11;98071.88;;;13.82;58.95
16544;BME280;8384;47.996;7.786;2024-03-23T01:18:40;98081.47;;;13.85;58.97
16544;BME280;8384;47.996;7.786;2024-03-23T01:21:11;98151.38;;;14.12;60.22
16544;BME280;8384;47.996;7.786;2024-03-23T01:23:42;98178.28;;;14.15;60.06
16544;BME280;8384;47.996;7.786;2024-03-23T01:26:13;98050.97;;;13.29;60.54
16544;BME280;8384;47.996;7.786;2024-03-23T01:28:39;98162.06;;;14.13;60.40
16544;BME280;8384;47.996;7.786;2024-03-23T01:31:07;98139.00;;;13.95;60.83
16544;BME280;8384;47.996;7.786;2024-03-23T01:33:33;98034.81;;;13.46;60.13
16544;BME280;8384;47.996;7.786;2024-03-23T01:35:58;98094.00;;;13.91;59.94
16544;BME280;8384;47.996;7.786;2024-03-23T01:38:23;98019.31;;;13.56;59.55
16544;BME280;8384;47.996;7.786;2024-03-23T01:40:57;98092.88;;;13.92;60.26
16544;BME280;8384;47.996;7.786;2024-03-23T01:43:28;98060.31;;;13.85;60.33
16544;BME280;8384;47.996;7.786;2024-03-23T01:45:54;98068.22;;;13.73;60.20
16544;BME280;8384;47.996;7.786;2024-03-23T01:48:20;98019.47;;;13.45;60.54
16544;BME280;8384;47.996;7.786;2024-03-23T01:50:46;98010.25;;;13.36;60.58
16544;BME280;8384;47.996;7.786;2024-03-23T01:53:15;98080.53;;;14.08;60.82
16544;BME280;8384;47.996;7.786;2024-03-23T01:55:50;98115.22;;;14.04;61.08
16544;BME280;8384;47.996;7.786;2024-03-23T01:58:22;98008.63;;;13.54;61.05
16544;BME280;8384;47.996;7.786;2024-03-23T02:00:48;98108.06;;;14.22;61.31
16544;BME280;8384;47.996;7.786;2024-03-23T02:03:27;98106.72;;;14.20;61.84
16544;BME280;8384;47.996;7.786;2024-03-23T02:05:53;98099.81;;;14.22;61.95
16544;BME280;8384;47.996;7.786;2024-03-23T02:08:21;98101.72;;;14.22;62.51
16544;BME280;8384;47.996;7.786;2024-03-23T02:10:47;98088.81;;;14.22;62.25
16544;BME280;8384;47.996;7.786;2024-03-23T02:13:14;98072.88;;;14.05;62.63
16544;BME280;8384;47.996;7.786;2024-03-23T02:15:39;98096.75;;;14.24;63.21
16544;BME280;8384;47.996;7.786;2024-03-23T02:18:05;98089.06;;;14.07;62.99
16544;BME280;8384;47.996;7.786;2024-03-23T02:20:30;98095.84;;;14.15;63.16
16544;BME280;8384;47.996;7.786;2024-03-23T02:22:55;98112.13;;;14.25;63.09
16544;BME280;8384;47.996;7.786;2024-03-23T02:25:20;98112.59;;;14.13;63.87
16544;BME280;8384;47.996;7.786;2024-03-23T02:27:46;98081.06;;;14.10;63.84
16544;BME280;8384;47.996;7.786;2024-03-23T02:30:11;98100.63;;;14.23;64.56
16544;BME280;8384;47.996;7.786;2024-03-23T02:32:36;98095.13;;;14.23;64.93
16544;BME280;8384;47.996;7.786;2024-03-23T02:35:02;98087.59;;;14.15;65.36
16544;BME280;8384;47.996;7.786;2024-03-23T02:37:27;98087.34;;;14.11;65.88
16544;BME280;8384;47.996;7.786;2024-03-23T02:39:52;98092.66;;;13.88;67.06
16544;BME280;8384;47.996;7.786;2024-03-23T02:42:17;98084.81;;;13.82;67.26
16544;BME280;8384;47.996;7.786;2024-03-23T02:44:44;98084.31;;;13.79;68.28
16544;BME280;8384;47.996;7.786;2024-03-23T02:47:09;98061.97;;;13.67;68.48
16544;BME280;8384;47.996;7.786;2024-03-23T02:49:34;98059.97;;;13.54;69.49
16544;BME280;8384;47.996;7.786;2024-03-23T02:52:00;98078.66;;;13.71;69.86
16544;BME280;8384;47.996;7.786;2024-03-23T02:54:25;98065.59;;;13.62;70.37
16544;BME280;8384;47.996;7.786;2024-03-23T02:56:51;98053.00;;;13.42;70.86
16544;BME280;8384;47.996;7.786;2024-03-23T02:59:16;98056.63;;;13.57;70.65
16544;BME280;8384;47.996;7.786;2024-03-23T03:01:41;98055.75;;;13.42;71.42
16544;BME280;8384;47.996;7.786;2024-03-23T03:04:07;98054.28;;;13.50;71.78
16544;BME280;8384;47.996;7.786;2024-03-23T03:06:32;98056.59;;;13.38;72.97
16544;BME280;8384;47.996;7.786;2024-03-23T03:08:57;98057.13;;;13.40;72.86
16544;BME280;8384;47.996;7.786;2024-03-23T03:11:23;98030.84;;;13.14;73.54
16544;BME280;8384;47.996;7.786;2024-03-23T03:13:48;98050.25;;;13.42;73.73
16544;BME280;8384;47.996;7.786;2024-03-23T03:16:13;98028.44;;;13.32;73.66
16544;BME280;8384;47.996;7.786;2024-03-23T03:18:39;98029.41;;;13.41;73.81
16544;BME280;8384;47.996;7.786;2024-03-23T03:21:08;98043.38;;;13.45;74.38
16544;BME280;8384;47.996;7.786;2024-03-23T03:23:39;98035.16;;;13.40;74.97
16544;BME280;8384;47.996;7.786;2024-03-23T03:26:05;98008.53;;;13.40;74.90
16544;BME280;8384;47.996;7.786;2024-03-23T03:28:31;98011.75;;;13.47;74.93
16544;BME280;8384;47.996;7.786;2024-03-23T03:30:58;97997.53;;;13.40;74.62
16544;BME280;8384;47.996;7.786;2024-03-23T03:33:23;98015.69;;;13.41;75.34
16544;BME280;8384;47.996;7.786;2024-03-23T03:35:48;97976.88;;;13.29;75.75
16544;BME280;8384;47.996;7.786;2024-03-23T03:38:14;97983.19;;;13.48;74.86
16544;BME280;8384;47.996;7.786;2024-03-23T03:40:39;98000.09;;;13.56;75.42
16544;BME280;8384;47.996;7.786;2024-03-23T03:43:04;97995.09;;;13.39;79.28
16544;BME280;8384;47.996;7.786;2024-03-23T03:45:30;97993.19;;;13.20;80.66
16544;BME280;8384;47.996;7.786;2024-03-23T03:47:55;98005.34;;;13.33;80.46
16544;BME280;8384;47.996;7.786;2024-03-23T03:50:21;97999.94;;;13.28;81.73
16544;BME280;8384;47.996;7.786;2024-03-23T03:52:47;97996.75;;;13.20;82.03
16544;BME280;8384;47.996;7.786;2024-03-23T03:55:13;97984.66;;;13.22;81.94
16544;BME280;8384;47.996;7.786;2024-03-23T03:57:39;97958.34;;;13.01;83.50
16544;BME280;8384;47.996;7.786;2024-03-23T04:00:05;97977.19;;;13.08;85.51
16544;BME280;8384;47.996;7.786;2024-03-23T04:02:31;97963.16;;;12.90;85.91
16544;BME280;8384;47.996;7.786;2024-03-23T04:04:56;97959.75;;;12.99;86.08
16544;BME280;8384;47.996;7.786;2024-03-23T04:07:21;97924.91;;;12.80;85.83
16544;BME280;8384;47.996;7.786;2024-03-23T04:09:48;97963.09;;;12.96;85.95
16544;BME280;8384;47.996;7.786;2024-03-23T04:12:13;97959.03;;;12.93;86.40
16544;BME280;8384;47.996;7.786;2024-03-23T04:14:38;97965.25;;;12.99;85.77
16544;BME280;8384;47.996;7.786;2024-03-23T04:17:04;97957.38;;;12.92;85.58
16544;BME280;8384;47.996;7.786;2024-03-23T04:19:29;97960.28;;;13.01;85.34
16544;BME280;8384;47.996;7.786;2024-03-23T04:21:54;97966.03;;;12.99;84.61
16544;BME280;8384;47.996;7.786;2024-03-23T04:24:20;97970.66;;;13.04;84.96
16544;BME280;8384;47.996;7.786;2024-03-23T04:26:47;97969.47;;;12.91;85.64
16544;BME280;8384;47.996;7.786;2024-03-23T04:29:12;97980.16;;;13.12;85.41
16544;BME280;8384;47.996;7.786;2024-03-23T04:31:38;97967.09;;;12.84;85.99
16544;BME280;8384;47.996;7.786;2024-03-23T04:34:04;97994.00;;;13.01;86.14
16544;BME280;8384;47.996;7.786;2024-03-23T04:36:29;97989.09;;;12.98;86.02
16544;BME280;8384;47.996;7.786;2024-03-23T04:38:56;97993.31;;;12.90;86.39
16544;BME280;8384;47.996;7.786;2024-03-23T04:41:22;98007.19;;;12.80;87.87
16544;BME280;8384;47.996;7.786;2024-03-23T04:43:47;98011.56;;;12.81;87.72
16544;BME280;8384;47.996;7.786;2024-03-23T04:46:12;98029.19;;;12.75;88.56
16544;BME280;8384;47.996;7.786;2024-03-23T04:48:38;98042.44;;;12.68;89.11
16544;BME280;8384;47.996;7.786;2024-03-23T04:51:03;98073.69;;;12.67;90.09
16544;BME280;8384;47.996;7.786;2024-03-23T04:53:29;98054.56;;;12.62;90.90
16544;BME280;8384;47.996;7.786;2024-03-23T04:55:55;98058.28;;;12.47;92.71
16544;BME280;8384;47.996;7.786;2024-03-23T04:58:22;98066.09;;;12.34;95.26
16544;BME280;8384;47.996;7.786;2024-03-23T05:00:48;98066.69;;;12.31;95.99
16544;BME280;8384;47.996;7.786;2024-03-23T05:03:13;98077.03;;;12.39;95.46
16544;BME280;8384;47.996;7.786;2024-03-23T05:05:38;98073.66;;;12.18;96.64
16544;BME280;8384;47.996;7.786;2024-03-23T05:08:04;98080.19;;;12.22;98.14
16544;BME280;8384;47.996;7.786;2024-03-23T05:10:30;98095.53;;;12.23;98.56
16544;BME280;8384;47.996;7.786;2024-03-23T05:12:57;98093.22;;;12.06;99.59
16544;BME280;8384;47.996;7.786;2024-03-23T05:15:22;98076.25;;;12.04;100.00
16544;BME280;8384;47.996;7.786;2024-03-23T05:17:48;98105.72;;;12.18;100.00
16544;BME280;8384;47.996;7.786;2024-03-23T05:20:13;98106.94;;;11.96;100.00
16544;BME280;8384;47.996;7.786;2024-03-23T05:22:39;98109.44;;;11.92;100.00
16544;BME280;8384;47.996;7.786;2024-03-23T05:25:05;98066.63;;;11.67;100.00
16544;BME280;8384;47.996;7.786;2024-03-23T05:27:32;98103.84;;;11.73;100.00
16544;BME280;8384;47.996;7.786;2024-03-23T05:29:58;98100.88;;;11.69;100.00
16544;BME280;8384;47.996;7.786;2024-03-23T05:32:23;98109.06;;;11.69;100.00
16544;BME280;8384;47.996;7.786;2024-03-23T05:34:49;98105.25;;;11.65;100.00
16544;BME280;8384;47.996;7.786;2024-03-23T05:37:15;98085.34;;;11.60;100.00
16544;BME280;8384;47.996;7.786;2024-03-23T05:39:40;98100.13;;;11.59;100.00
16544;BME280;8384;47.996;7.786;2024-03-23T05:42:06;98120.28;;;11.68;100.00
16544;BME280;8384;47.996;7.786;2024-03-23T05:44:31;98126.97;;;11.51;100.00
16544;BME280;8384;47.996;7.786;2024-03-23T05:46:56;98136.97;;;11.27;100.00
16544;BME280;8384;47.996;7.786;2024-03-23T05:49:22;98119.00;;;11.05;100.00
16544;BME280;8384;47.996;7.786;2024-03-23T05:51:47;98151.44;;;11.27;100.00
16544;BME280;8384;47.996;7.786;2024-03-23T05:54:13;98163.47;;;11.26;100.00
16544;BME280;8384;47.996;7.786;2024-03-23T05:56:38;98170.38;;;11.13;100.00
16544;BME280;8384;47.996;7.786;2024-03-23T05:59:03;98135.22;;;10.80;100.00
16544;BME280;8384;47.996;7.786;2024-03-23T06:01:29;98190.66;;;11.02;100.00
16544;BME280;8384;47.996;7.786;2024-03-23T06:03:57;98206.28;;;10.86;100.00
16544;BME280;8384;47.996;7.786;2024-03-23T06:06:23;98197.84;;;10.61;99.04
16544;BME280;8384;47.996;7.786;2024-03-23T06:08:48;98203.59;;;10.39;96.41
16544;BME280;8384;47.996;7.786;2024-03-23T06:11:14;98205.19;;;10.04;88.14
16544;BME280;8384;47.996;7.786;2024-03-23T06:13:39;98225.91;;;9.95;88.07
16544;BME280;8384;47.996;7.786;2024-03-23T06:16:04;98217.41;;;9.81;89.09
16544;BME280;8384;47.996;7.786;2024-03-23T06:18:30;98225.03;;;9.68;90.72
16544;BME280;8384;47.996;7.786;2024-03-23T06:20:56;98252.91;;;9.75;91.67
16544;BME280;8384;47.996;7.786;2024-03-23T06:23:22;98247.69;;;9.74;92.36
16544;BME280;8384;47.996;7.786;2024-03-23T06:25:47;98246.03;;;9.57;90.75
16544;BME280;8384;47.996;7.786;2024-03-23T06:28:13;98264.28;;;9.57;88.69
16544;BME280;8384;47.996;7.786;2024-03-23T06:30:39;98273.78;;;9.44;89.67
16544;BME280;8384;47.996;7.786;2024-03-23T06:33:04;98287.63;;;9.32;88.23
16544;BME280;8384;47.996;7.786;2024-03-23T06:35:30;98265.97;;;9.10;92.58
16544;BME280;8384;47.996;7.786;2024-03-23T06:37:56;98288.19;;;8.91;93.74
16544;BME280;8384;47.996;7.786;2024-03-23T06:40:21;98282.38;;;8.77;94.14
16544;BME280;8384;47.996;7.786;2024-03-23T06:42:46;98257.50;;;8.68;93.06
16544;BME280;8384;47.996;7.786;2024-03-23T06:45:11;98264.16;;;8.83;91.12
16544;BME280;8384;47.996;7.786;2024-03-23T06:47:37;98270.69;;;8.82;89.99
16544;BME280;8384;47.996;7.786;2024-03-23T06:50:03;98281.28;;;8.78;90.39
16544;BME280;8384;47.996;7.786;2024-03-23T06:52:29;98313.78;;;8.85;86.22
16544;BME280;8384;47.996;7.786;2024-03-23T06:54:54;98329.06;;;8.91;88.31
16544;BME280;8384;47.996;7.786;2024-03-23T06:57:19;98338.09;;;8.92;87.62
16544;BME280;8384;47.996;7.786;2024-03-23T06:59:44;98354.50;;;8.97;87.35
16544;BME280;8384;47.996;7.786;2024-03-23T07:02:10;98376.03;;;8.98;86.33
16544;BME280;8384;47.996;7.786;2024-03-23T07:04:36;98390.22;;;9.00;85.89
16544;BME280;8384;47.996;7.786;2024-03-23T07:07:02;98414.47;;;9.02;85.31
16544;BME280;8384;47.996;7.786;2024-03-23T07:09:30;98414.47;;;9.02;84.86
16544;BME280;8384;47.996;7.786;2024-03-23T07:11:56;98421.13;;;9.11;84.71
16544;BME280;8384;47.996;7.786;2024-03-23T07:14:22;98440.72;;;9.08;85.37
16544;BME280;8384;47.996;7.786;2024-03-23T07:16:48;98444.75;;;9.00;84.36
16544;BME280;8384;47.996;7.786;2024-03-23T07:19:15;98441.97;;;8.95;83.71
16544;BME280;8384;47.996;7.786;2024-03-23T07:21:41;98441.00;;;8.79;84.31
16544;BME280;8384;47.996;7.786;2024-03-23T07:24:07;98403.34;;;8.49;83.30
16544;BME280;8384;47.996;7.786;2024-03-23T07:26:32;98466.13;;;8.87;84.71
16544;BME280;8384;47.996;7.786;2024-03-23T07:28:57;98476.94;;;8.76;85.13
16544;BME280;8384;47.996;7.786;2024-03-23T07:31:23;98452.66;;;8.75;84.68
16544;BME280;8384;47.996;7.786;2024-03-23T07:33:49;98446.03;;;8.65;85.97
16544;BME280;8384;47.996;7.786;2024-03-23T07:36:14;98463.44;;;8.64;84.04
16544;BME280;8384;47.996;7.786;2024-03-23T07:38:41;98491.09;;;8.73;83.85
16544;BME280;8384;47.996;7.786;2024-03-23T07:41:08;98503.38;;;8.76;84.03
16544;BME280;8384;47.996;7.786;2024-03-23T07:43:34;98506.81;;;8.66;85.67
16544;BME280;8384;47.996;7.786;2024-03-23T07:46:00;98499.84;;;8.53;85.96
16544;BME280;8384;47.996;7.786;2024-03-23T07:48:26;98515.81;;;8.27;82.83
16544;BME280;8384;47.996;7.786;2024-03-23T07:51:14;98525.25;;;8.41;82.05
16544;BME280;8384;47.996;7.786;2024-03-23T07:53:39;98546.47;;;8.39;80.63
16544;BME280;8384;47.996;7.786;2024-03-23T07:56:09;98566.03;;;8.36;80.35
16544;BME280;8384;47.996;7.786;2024-03-23T07:58:35;98570.53;;;8.25;77.44
16544;BME280;8384;47.996;7.786;2024-03-23T08:01:09;98560.66;;;8.19;78.02
16544;BME280;8384;47.996;7.786;2024-03-23T08:03:38;98570.63;;;8.14;75.51
16544;BME280;8384;47.996;7.786;2024-03-23T08:08:33;98580.13;;;8.11;75.39
16544;BME280;8384;47.996;7.786;2024-03-23T08:10:58;98578.97;;;8.07;74.90
16544;BME280;8384;47.996;7.786;2024-03-23T08:13:24;98586.63;;;8.10;75.46
16544;BME280;8384;47.996;7.786;2024-03-23T08:15:49;98560.19;;;7.88;73.58
16544;BME280;8384;47.996;7.786;2024-03-23T08:18:14;98587.81;;;7.97;73.02
16544;BME280;8384;47.996;7.786;2024-03-23T08:20:40;98594.41;;;8.01;72.92
16544;BME280;8384;47.996;7.786;2024-03-23T08:23:06;98580.53;;;7.86;70.85
16544;BME280;8384;47.996;7.786;2024-03-23T08:25:32;98570.03;;;8.11;70.33
16544;BME280;8384;47.996;7.786;2024-03-23T08:27:58;98608.81;;;8.53;67.01
16544;BME280;8384;47.996;7.786;2024-03-23T08:30:23;98615.34;;;8.74;63.95
16544;BME280;8384;47.996;7.786;2024-03-23T08:32:48;98607.13;;;8.69;63.09
16544;BME280;8384;47.996;7.786;2024-03-23T08:35:14;98609.19;;;8.62;62.81
16544;BME280;8384;47.996;7.786;2024-03-23T08:37:39;98623.28;;;8.76;63.98
16544;BME280;8384;47.996;7.786;2024-03-23T08:40:05;98607.34;;;8.67;65.02
16544;BME280;8384;47.996;7.786;2024-03-23T08:42:30;98617.47;;;8.50;62.95
16544;BME280;8384;47.996;7.786;2024-03-23T08:44:55;98642.44;;;8.81;61.85
16544;BME280;8384;47.996;7.786;2024-03-23T08:47:21;98638.97;;;8.68;62.76
16544;BME280;8384;47.996;7.786;2024-03-23T08:49:46;98633.53;;;8.68;62.96
16544;BME280;8384;47.996;7.786;2024-03-23T08:52:11;98644.69;;;8.89;61.02
16544;BME280;8384;47.996;7.786;2024-03-23T08:54:36;98626.06;;;8.81;62.80
16544;BME280;8384;47.996;7.786;2024-03-23T08:57:02;98652.31;;;8.87;61.36
16544;BME280;8384;47.996;7.786;2024-03-23T08:59:27;98601.16;;;8.72;60.60
16544;BME280;8384;47.996;7.786;2024-03-23T09:01:53;98625.44;;;8.96;60.57
16544;BME280;8384;47.996;7.786;2024-03-23T09:04:18;98624.88;;;8.94;61.76
16544;BME280;8384;47.996;7.786;2024-03-23T09:06:44;98600.41;;;8.77;60.92
16544;BME280;8384;47.996;7.786;2024-03-23T09:09:09;98635.28;;;8.97;61.82
16544;BME280;8384;47.996;7.786;2024-03-23T09:11:34;98630.78;;;9.08;64.18
16544;BME280;8384;47.996;7.786;2024-03-23T09:14:00;98580.31;;;8.83;62.89
16544;BME280;8384;47.996;7.786;2024-03-23T09:16:25;98633.63;;;9.45;62.77
16544;BME280;8384;47.996;7.786;2024-03-23T09:18:52;98641.59;;;9.25;60.54
16544;BME280;8384;47.996;7.786;2024-03-23T09:21:17;98612.44;;;9.03;61.22
16544;BME280;8384;47.996;7.786;2024-03-23T09:23:43;98633.41;;;9.25;62.67
16544;BME280;8384;47.996;7.786;2024-03-23T09:26:09;98627.13;;;9.02;66.67
16544;BME280;8384;47.996;7.786;2024-03-23T09:28:34;98614.78;;;8.94;64.77
16544;BME280;8384;47.996;7.786;2024-03-23T09:31:07;98615.59;;;9.17;63.17
16544;BME280;8384;47.996;7.786;2024-03-23T09:33:36;98571.28;;;9.59;62.23
16544;BME280;8384;47.996;7.786;2024-03-23T09:36:05;98572.53;;;9.47;58.62
16544;BME280;8384;47.996;7.786;2024-03-23T09:38:31;98603.53;;;9.95;59.06
16544;BME280;8384;47.996;7.786;2024-03-23T09:40:57;98594.31;;;10.39;58.76
16544;BME280;8384;47.996;7.786;2024-03-23T09:43:22;98593.06;;;10.57;56.69
16544;BME280;8384;47.996;7.786;2024-03-23T09:45:49;98592.31;;;10.34;55.09
16544;BME280;8384;47.996;7.786;2024-03-23T09:48:15;98578.50;;;10.52;55.83
16544;BME280;8384;47.996;7.786;2024-03-23T09:50:42;98581.78;;;10.43;52.09
16544;BME280;8384;47.996;7.786;2024-03-23T09:53:09;98585.66;;;10.58;52.83
16544;BME280;8384;47.996;7.786;2024-03-23T09:55:35;98576.44;;;10.69;53.23
16544;BME280;8384;47.996;7.786;2024-03-23T09:58:01;98591.19;;;10.68;50.79
16544;BME280;8384;47.996;7.786;2024-03-23T10:00:26;98608.53;;;10.46;50.36
16544;BME280;8384;47.996;7.786;2024-03-23T10:02:51;98590.34;;;10.19;50.79
16544;BME280;8384;47.996;7.786;2024-03-23T10:05:21;98612.75;;;9.89;50.62
16544;BME280;8384;47.996;7.786;2024-03-23T10:07:51;98602.06;;;9.82;52.03
16544;BME280;8384;47.996;7.786;2024-03-23T10:10:16;98618.72;;;9.53;49.90
16544;BME280;8384;47.996;7.786;2024-03-23T10:12:46;98610.31;;;9.33;51.34
16544;BME280;8384;47.996;7.786;2024-03-23T10:15:24;98600.78;;;9.35;51.35
16544;BME280;8384;47.996;7.786;2024-03-23T10:17:50;98581.06;;;9.28;52.18
16544;BME280;8384;47.996;7.786;2024-03-23T10:20:19;98604.59;;;9.34;52.50
16544;BME280;8384;47.996;7.786;2024-03-23T10:22:47;98611.41;;;9.32;53.36
16544;BME280;8384;47.996;7.786;2024-03-23T10:25:14;98590.09;;;9.06;54.11
16544;BME280;8384;47.996;7.786;2024-03-23T10:27:39;98607.53;;;9.05;54.99
16544;BME280;8384;47.996;7.786;2024-03-23T10:30:10;98655.03;;;9.09;56.87
16544;BME280;8384;47.996;7.786;2024-03-23T10:32:35;98680.28;;;8.60;62.13
16544;BME280;8384;47.996;7.786;2024-03-23T10:35:14;98687.03;;;7.31;75.25
16544;BME280;8384;47.996;7.786;2024-03-23T10:37:40;98685.97;;;6.68;87.32
16544;BME280;8384;47.996;7.786;2024-03-23T10:40:06;98687.25;;;6.41;92.46
16544;BME280;8384;47.996;7.786;2024-03-23T10:42:32;98705.88;;;6.02;99.13
16544;BME280;8384;47.996;7.786;2024-03-23T10:44:58;98700.59;;;5.89;100.00
16544;BME280;8384;47.996;7.786;2024-03-23T10:47:23;98722.28;;;5.46;100.00
16544;BME280;8384;47.996;7.786;2024-03-23T10:49:49;98715.41;;;5.44;100.00
16544;BME280;8384;47.996;7.786;2024-03-23T10:52:14;98712.41;;;5.33;100.00
16544;BME280;8384;47.996;7.786;2024-03-23T10:54:41;98694.41;;;5.39;100.00
16544;BME280;8384;47.996;7.786;2024-03-23T10:57:12;98692.59;;;5.51;100.00
16544;BME280;8384;47.996;7.786;2024-03-23T10:59:40;98701.22;;;5.60;100.00
16544;BME280;8384;47.996;7.786;2024-03-23T11:02:06;98664.13;;;5.42;100.00
16544;BME280;8384;47.996;7.786;2024-03-23T11:04:37;98704.47;;;5.81;100.00
16544;BME280;8384;47.996;7.786;2024-03-23T11:09:48;98671.13;;;5.80;100.00
16544;BME280;8384;47.996;7.786;2024-03-23T11:15:02;98718.56;;;6.56;100.00
16544;BME280;8384;47.996;7.786;2024-03-23T11:17:28;98690.47;;;6.74;100.00
16544;BME280;8384;47.996;7.786;2024-03-23T11:20:03;98709.13;;;7.35;100.00
16544;BME280;8384;47.996;7.786;2024-03-23T11:22:43;98712.38;;;7.78;100.00
16544;BME280;8384;47.996;7.786;2024-03-23T11:25:25;98707.66;;;8.02;100.00
16544;BME280;8384;47.996;7.786;2024-03-23T11:27:55;98671.88;;;7.64;99.79
16544;BME280;8384;47.996;7.786;2024-03-23T11:32:49;98708.16;;;8.16;100.00
16544;BME280;8384;47.996;7.786;2024-03-23T11:35:34;98708.97;;;8.17;100.00
16544;BME280;8384;47.996;7.786;2024-03-23T11:40:39;98702.41;;;7.67;96.19
16544;BME280;8384;47.996;7.786;2024-03-23T11:43:07;98703.00;;;7.28;97.79
16544;BME280;8384;47.996;7.786;2024-03-23T11:45:37;98700.59;;;7.72;99.64
16544;BME280;8384;47.996;7.786;2024-03-23T11:48:05;98704.91;;;7.85;96.83
16544;BME280;8384;47.996;7.786;2024-03-23T11:50:30;98700.66;;;8.06;95.20
16544;BME280;8384;47.996;7.786;2024-03-23T11:58:10;98691.25;;;10.36;83.53
16544;BME280;8384;47.996;7.786;2024-03-23T12:00:35;98684.94;;;10.69;78.23
16544;BME280;8384;47.996;7.786;2024-03-23T12:03:04;98675.56;;;11.02;75.19
16544;BME280;8384;47.996;7.786;2024-03-23T12:05:31;98666.00;;;11.05;71.01
16544;BME280;8384;47.996;7.786;2024-03-23T12:08:18;98681.50;;;11.52;64.27
16544;BME280;8384;47.996;7.786;2024-03-23T12:10:46;98654.94;;;11.48;61.51
16544;BME280;8384;47.996;7.786;2024-03-23T12:13:15;98638.38;;;11.06;65.42
16544;BME280;8384;47.996;7.786;2024-03-23T12:15:40;98649.88;;;10.23;67.38
16544;BME280;8384;47.996;7.786;2024-03-23T12:18:07;98621.72;;;10.55;65.25
16544;BME280;8384;47.996;7.786;2024-03-23T12:20:32;98641.38;;;10.19;66.21
16544;BME280;8384;47.996;7.786;2024-03-23T12:23:07;98641.06;;;10.10;67.66
16544;BME280;8384;47.996;7.786;2024-03-23T12:25:34;98639.75;;;9.85;67.99
16544;BME280;8384;47.996;7.786;2024-03-23T12:27:59;98620.06;;;9.83;69.48
16544;BME280;8384;47.996;7.786;2024-03-23T12:30:25;98629.31;;;9.00;70.04
16544;BME280;8384;47.996;7.786;2024-03-23T12:32:50;98614.78;;;9.44;66.96
16544;BME280;8384;47.996;7.786;2024-03-23T12:35:15;98626.38;;;10.16;60.09
16544;BME280;8384;47.996;7.786;2024-03-23T12:37:40;98582.84;;;9.17;60.00
16544;BME280;8384;47.996;7.786;2024-03-23T12:40:07;98603.75;;;9.61;59.91
16544;BME280;8384;47.996;7.786;2024-03-23T12:42:32;98606.72;;;10.19;61.16
16544;BME280;8384;47.996;7.786;2024-03-23T12:44:58;98594.72;;;9.88;62.29
16544;BME280;8384;47.996;7.786;2024-03-23T12:47:23;98584.56;;;10.59;62.96
16544;BME280;8384;47.996;7.786;2024-03-23T12:49:48;98591.22;;;10.78;57.68
16544;BME280;8384;47.996;7.786;2024-03-23T12:52:14;98541.72;;;9.79;53.24
16544;BME280;8384;47.996;7.786;2024-03-23T12:54:40;98582.91;;;9.77;55.22
16544;BME280;8384;47.996;7.786;2024-03-23T12:57:05;98585.16;;;9.53;56.06
16544;BME280;8384;47.996;7.786;2024-03-23T12:59:30;98603.53;;;9.68;55.13
16544;BME280;8384;47.996;7.786;2024-03-23T13:01:55;98578.91;;;9.57;55.00
16544;BME280;8384;47.996;7.786;2024-03-23T13:04:21;98591.53;;;9.64;55.72
16544;BME280;8384;47.996;7.786;2024-03-23T13:06:47;98576.75;;;9.59;52.76
16544;BME280;8384;47.996;7.786;2024-03-23T13:09:12;98577.47;;;9.50;52.72
16544;BME280;8384;47.996;7.786;2024-03-23T13:11:37;98576.38;;;10.16;51.49
16544;BME280;8384;47.996;7.786;2024-03-23T13:14:03;98584.88;;;10.25;49.40
16544;BME280;8384;47.996;7.786;2024-03-23T13:16:29;98575.75;;;10.46;49.61
16544;BME280;8384;47.996;7.786;2024-03-23T13:18:54;98551.47;;;10.50;49.72
16544;BME280;8384;47.996;7.786;2024-03-23T13:21:19;98566.88;;;10.29;50.05
16544;BME280;8384;47.996;7.786;2024-03-23T13:23:48;98566.59;;;10.68;50.04
16544;BME280;8384;47.996;7.786;2024-03-23T13:26:15;98558.22;;;11.01;48.87
16544;BME280;8384;47.996;7.786;2024-03-23T13:28:40;98543.13;;;10.34;47.74
16544;BME280;8384;47.996;7.786;2024-03-23T13:31:06;98546.03;;;10.60;48.58
16544;BME280;8384;47.996;7.786;2024-03-23T13:33:33;98553.28;;;10.98;46.96
16544;BME280;8384;47.996;7.786;2024-03-23T13:35:59;98525.66;;;10.94;47.11
16544;BME280;8384;47.996;7.786;2024-03-23T13:38:24;98481.28;;;10.66;47.21
16544;BME280;8384;47.996;7.786;2024-03-23T13:40:59;98514.53;;;10.47;46.78
16544;BME280;8384;47.996;7.786;2024-03-23T13:43:26;98516.31;;;10.21;49.04
16544;BME280;8384;47.996;7.786;2024-03-23T13:45:57;98548.72;;;10.07;48.59
16544;BME280;8384;47.996;7.786;2024-03-23T13:48:24;98487.78;;;9.58;46.94
16544;BME280;8384;47.996;7.786;2024-03-23T13:51:00;98485.31;;;10.00;47.67
16544;BME280;8384;47.996;7.786;2024-03-23T13:53:25;98489.16;;;10.04;45.53
16544;BME280;8384;47.996;7.786;2024-03-23T13:55:51;98503.72;;;10.20;43.60
16544;BME280;8384;47.996;7.786;2024-03-23T13:58:16;98489.28;;;10.19;41.37
16544;BME280;8384;47.996;7.786;2024-03-23T14:00:41;98520.69;;;10.80;39.76
16544;BME280;8384;47.996;7.786;2024-03-23T14:03:10;98437.38;;;11.09;39.26
16544;BME280;8384;47.996;7.786;2024-03-23T14:05:36;98463.56;;;11.98;38.09
16544;BME280;8384;47.996;7.786;2024-03-23T14:08:07;98484.38;;;12.14;39.06
16544;BME280;8384;47.996;7.786;2024-03-23T14:10:32;98445.50;;;11.92;37.55
16544;BME280;8384;47.996;7.786;2024-03-23T14:12:57;98486.88;;;11.28;38.81
16544;BME280;8384;47.996;7.786;2024-03-23T14:15:25;98466.63;;;11.34;36.48
16544;BME280;8384;47.996;7.786;2024-03-23T14:17:50;98492.31;;;10.97;38.42
16544;BME280;8384;47.996;7.786;2024-03-23T14:20:16;98486.06;;;11.12;39.21
16544;BME280;8384;47.996;7.786;2024-03-23T14:22:41;98473.75;;;11.15;40.07